Time;durP1;ratioP1;P1;durP2;ratioP2;P2;SDS_P1;SDS_P2;PMS_P1;PMS_P2;Temp;Humidity;BMP_temperature;BMP_pressure;BME280_temperature;BME280_humidity;BME280_pressure;Samples;Min_cycle;Max_cycle;Signal;HPM_P1;HPM_P2
2021/12/20 00:02:25;;;;;;;6.60;3.10;;;;;;;1.49;78.29;99678.16;126942;1315;107943;-77
2021/12/20 00:05:31;;;;;;;8.70;3.30;;;;;;;1.48;78.63;99679.42;126755;1315;108796;-77
2021/12/20 00:08:36;;;;;;;7.30;3.20;;;;;;;1.46;78.55;99688.89;126438;1309;108773;-77
2021/12/20 00:11:42;;;;;;;7.30;2.80;;;;;;;1.46;78.21;99694.65;126447;1309;108858;-75
2021/12/20 00:14:47;;;;;;;7.40;3.40;;;;;;;1.48;78.17;99698.92;126714;1313;108768;-76
2021/12/20 00:17:53;;;;;;;6.80;3.00;;;;;;;1.47;78.03;99698.25;126946;1310;109054;-76
2021/12/20 00:20:59;;;;;;;5.20;2.60;;;;;;;1.49;77.95;99695.50;126937;1310;108899;-76
2021/12/20 00:24:05;;;;;;;8.30;3.40;;;;;;;1.52;78.14;99695.27;126935;1315;107142;-76
2021/12/20 00:27:12;;;;;;;5.60;2.80;;;;;;;1.52;78.28;99688.66;126916;1309;109259;-75
2021/12/20 00:30:18;;;;;;;7.40;3.00;;;;;;;1.49;78.28;99687.14;126324;1313;108780;-75
2021/12/20 00:33:23;;;;;;;7.60;3.20;;;;;;;1.43;78.21;99700.17;126744;1309;108326;-77
2021/12/20 00:36:30;;;;;;;11.10;5.10;;;;;;;1.39;78.55;99700.44;126741;1315;108978;-77
2021/12/20 00:43:01;;;;;;;9.30;3.40;;;;;;;1.40;78.53;99711.58;126765;1312;108799;-77
2021/12/20 00:46:06;;;;;;;9.60;4.70;;;;;;;1.33;78.28;99717.70;126935;1315;108580;-79
2021/12/20 00:49:12;;;;;;;22.40;10.40;;;;;;;1.26;78.72;99711.83;126586;1315;108885;-78
2021/12/20 00:52:17;;;;;;;14.40;6.40;;;;;;;1.24;78.69;99708.67;126611;1315;107821;-75
2021/12/20 00:55:24;;;;;;;16.50;6.50;;;;;;;1.23;79.02;99705.57;126646;1312;108967;-79
2021/12/20 00:58:30;;;;;;;9.40;4.10;;;;;;;1.29;79.05;99712.02;126917;1315;107711;-77
2021/12/20 01:01:35;;;;;;;14.30;6.90;;;;;;;1.33;79.10;99711.02;126950;1314;108830;-76
2021/12/20 01:04:41;;;;;;;8.40;4.00;;;;;;;1.33;78.95;99709.98;126868;1315;108868;-77
2021/12/20 01:07:46;;;;;;;19.20;8.60;;;;;;;1.26;78.77;99715.74;126709;1315;108672;-75
2021/12/20 01:10:54;;;;;;;10.30;4.70;;;;;;;1.23;78.81;99710.17;126946;1309;108996;-76
2021/12/20 01:14:00;;;;;;;9.10;3.20;;;;;;;1.23;79.02;99702.31;126958;1316;108665;-77
2021/12/20 01:17:05;;;;;;;8.50;2.80;;;;;;;1.23;78.95;99701.05;126586;1311;106521;-79
2021/12/20 01:20:12;;;;;;;9.00;3.30;;;;;;;1.26;78.81;99698.89;126765;1315;108718;-79
2021/12/20 01:23:18;;;;;;;11.70;5.70;;;;;;;1.26;78.81;99706.23;126501;1316;109150;-76
2021/12/20 01:26:24;;;;;;;6.70;2.50;;;;;;;1.26;78.94;99712.23;126705;1314;108939;-76
2021/12/20 01:29:29;;;;;;;6.80;3.30;;;;;;;1.24;78.90;99712.52;126921;1315;108983;-76
2021/12/20 01:32:35;;;;;;;8.10;2.80;;;;;;;1.21;78.84;99712.20;126841;1316;108797;-76
2021/12/20 01:35:41;;;;;;;5.90;2.50;;;;;;;1.18;78.94;99718.71;126612;1316;108999;-76
2021/12/20 01:38:47;;;;;;;6.30;2.70;;;;;;;1.17;78.82;99719.61;126463;1315;107806;-77
2021/12/20 01:41:53;;;;;;;6.70;2.70;;;;;;;1.21;78.99;99716.06;126955;1309;109008;-77
2021/12/20 01:44:58;;;;;;;5.60;2.30;;;;;;;1.23;79.06;99715.60;126531;1310;108569;-77
2021/12/20 01:48:08;;;;;;;5.10;2.30;;;;;;;1.25;78.78;99715.59;126362;1316;108562;-76
2021/12/20 01:51:32;;;;;;;5.50;2.10;;;;;;;1.23;78.79;99716.14;126632;1316;108513;-78
2021/12/20 01:54:38;;;;;;;4.40;2.30;;;;;;;1.17;78.96;99718.90;126738;1315;108714;-74
2021/12/20 01:57:43;;;;;;;6.10;2.30;;;;;;;1.18;78.94;99716.98;126746;1315;108759;-74
2021/12/20 02:04:51;;;;;;;5.00;1.80;;;;;;;1.21;79.04;99715.69;123222;1347;635359;-74
2021/12/20 02:08:01;;;;;;;4.90;2.10;;;;;;;1.18;78.86;99725.55;125310;1328;108788;-73
2021/12/20 02:11:09;;;;;;;5.60;2.10;;;;;;;1.20;79.01;99723.33;125225;1324;107653;-74
2021/12/20 02:14:16;;;;;;;5.80;2.00;;;;;;;1.23;79.16;99721.21;125224;1323;107497;-74
2021/12/20 02:17:21;;;;;;;4.50;2.00;;;;;;;1.23;78.96;99721.20;125224;1323;178178;-74
2021/12/20 02:20:29;;;;;;;4.10;1.80;;;;;;;1.24;78.78;99719.53;125476;1321;107782;-73
2021/12/20 02:23:35;;;;;;;5.60;2.00;;;;;;;1.28;78.66;99712.09;125393;1321;106939;-74
2021/12/20 02:26:40;;;;;;;4.20;1.80;;;;;;;1.34;78.92;99714.77;125490;1321;108744;-74
2021/12/20 02:30:00;;;;;;;3.70;1.70;;;;;;;1.35;78.78;99706.11;125318;1321;108991;-72
2021/12/20 02:39:54;;;;;;;6.20;1.90;;;;;;;1.29;78.47;99707.07;125195;1321;107669;-74
2021/12/20 02:42:59;;;;;;;2.60;1.40;;;;;;;1.34;78.72;99704.09;125057;1321;109693;-75
2021/12/20 02:46:09;;;;;;;4.00;1.80;;;;;;;1.42;78.36;99705.69;125074;1321;108337;-74
2021/12/20 02:49:18;;;;;;;3.60;1.70;;;;;;;1.45;78.62;99701.58;126182;1317;108752;-75
2021/12/20 02:52:24;;;;;;;4.20;1.60;;;;;;;1.48;78.27;99701.38;126197;1317;107138;-75
2021/12/20 02:55:29;;;;;;;4.20;1.70;;;;;;;1.45;78.17;99693.70;126144;1311;106307;-75
2021/12/20 02:58:35;;;;;;;5.30;1.80;;;;;;;1.46;78.32;99698.90;126146;1311;108603;-75
2021/12/20 03:01:43;;;;;;;6.60;1.50;;;;;;;1.43;77.98;99705.76;126183;1311;108797;-74
2021/12/20 03:04:49;;;;;;;3.50;1.30;;;;;;;1.41;77.99;99715.02;126115;1311;108895;-76
2021/12/20 03:07:56;;;;;;;4.90;1.50;;;;;;;1.45;78.37;99705.30;126251;1313;108760;-75
2021/12/20 03:11:01;;;;;;;4.60;1.30;;;;;;;1.45;77.92;99710.13;126191;1311;108909;-75
2021/12/20 03:14:15;;;;;;;3.00;1.10;;;;;;;1.39;77.67;99706.52;126179;1312;106997;-75
2021/12/20 03:17:21;;;;;;;4.50;1.20;;;;;;;1.37;77.97;99702.48;126190;1318;107699;-77
2021/12/20 03:20:27;;;;;;;3.80;1.20;;;;;;;1.37;77.64;99709.52;126467;1314;108584;-77
2021/12/20 03:23:32;;;;;;;2.50;1.30;;;;;;;1.38;77.78;99705.95;126400;1314;109550;-75
2021/12/20 03:26:38;;;;;;;4.80;1.50;;;;;;;1.38;77.68;99694.86;126469;1317;108771;-75
2021/12/20 03:29:43;;;;;;;3.80;1.40;;;;;;;1.35;77.73;99696.01;126258;1318;108858;-75
2021/12/20 03:32:49;;;;;;;3.00;1.30;;;;;;;1.32;78.07;99695.33;126234;1313;109285;-76
2021/12/20 03:35:54;;;;;;;5.90;1.80;;;;;;;1.31;78.04;99690.49;126293;1315;108939;-76
2021/12/20 03:38:59;;;;;;;4.10;1.60;;;;;;;1.32;78.01;99702.50;126382;1318;107914;-75
2021/12/20 03:42:06;;;;;;;3.40;1.40;;;;;;;1.32;78.04;99701.46;126367;1313;107402;-74
2021/12/20 03:45:13;;;;;;;4.80;1.60;;;;;;;1.30;78.09;99698.24;126212;1313;108688;-74
2021/12/20 03:48:19;;;;;;;3.40;1.30;;;;;;;1.31;78.22;99702.77;126216;1318;108947;-75
2021/12/20 03:51:24;;;;;;;3.80;1.40;;;;;;;1.29;78.22;99701.67;126084;1313;107335;-74
2021/12/20 03:54:30;;;;;;;2.80;1.10;;;;;;;1.28;78.18;99697.36;126166;1313;108891;-74
2021/12/20 03:57:35;;;;;;;2.90;1.50;;;;;;;1.30;78.36;99688.29;126348;1318;106594;-74
2021/12/20 04:00:41;;;;;;;2.20;1.20;;;;;;;1.30;78.38;99690.02;126438;1315;108832;-74
2021/12/20 04:03:46;;;;;;;4.80;1.50;;;;;;;1.28;78.34;99690.90;126583;1315;108799;-76
2021/12/20 04:06:52;;;;;;;4.10;1.40;;;;;;;1.29;78.63;99690.81;126434;1313;108993;-77
2021/12/20 04:09:57;;;;;;;3.20;1.30;;;;;;;1.32;78.48;99703.02;126321;1318;107027;-75
2021/12/20 04:13:03;;;;;;;2.40;1.30;;;;;;;1.33;78.45;99704.05;126311;1314;109037;-79
2021/12/20 04:16:09;;;;;;;3.80;1.30;;;;;;;1.33;78.58;99714.50;126304;1317;109013;-82
2021/12/20 04:19:14;;;;;;;2.80;1.20;;;;;;;1.23;78.61;99700.70;126504;1314;107892;-85
2021/12/20 04:22:20;;;;;;;2.70;1.20;;;;;;;1.36;78.70;99717.98;126516;1312;107870;-82
2021/12/20 04:25:25;;;;;;;6.20;1.10;;;;;;;1.40;78.73;99721.25;126847;1315;109814;-85
2021/12/20 04:28:31;;;;;;;2.50;1.40;;;;;;;1.33;78.94;99712.43;126882;1315;108799;-83
2021/12/20 04:31:36;;;;;;;3.60;1.10;;;;;;;1.38;79.06;99723.78;126801;1315;108924;-84
2021/12/20 04:34:42;;;;;;;2.20;1.10;;;;;;;1.40;79.24;99728.58;126556;1312;108942;-84
2021/12/20 04:37:49;;;;;;;2.90;1.30;;;;;;;1.39;79.28;99713.55;126528;1311;108921;-81
2021/12/20 04:40:54;;;;;;;4.30;1.20;;;;;;;1.42;79.39;99713.52;126507;1317;108752;-82
2021/12/20 04:44:00;;;;;;;3.00;1.20;;;;;;;1.47;79.33;99713.34;126725;1314;106774;-84
2021/12/20 04:47:05;;;;;;;3.60;1.80;;;;;;;1.51;79.45;99713.23;126754;1311;107765;-83
2021/12/20 04:50:11;;;;;;;3.90;1.30;;;;;;;1.43;79.47;99715.19;126591;1314;108930;-84
2021/12/20 04:53:17;;;;;;;3.00;1.20;;;;;;;1.41;79.62;99715.58;126800;1312;107699;-81
2021/12/20 04:56:22;;;;;;;2.30;0.90;;;;;;;1.42;79.56;99721.05;126733;1313;108978;-80
2021/12/20 04:59:28;;;;;;;4.30;1.30;;;;;;;1.41;79.59;99723.82;126769;1312;108948;-82
2021/12/20 05:02:33;;;;;;;3.60;1.30;;;;;;;1.44;79.64;99721.33;126496;1315;108854;-79
2021/12/20 05:05:38;;;;;;;4.00;1.30;;;;;;;1.42;79.72;99718.79;126615;1318;108799;-82
2021/12/20 05:08:48;;;;;;;3.50;1.40;;;;;;;1.39;79.63;99712.14;126631;1315;109032;-82
2021/12/20 05:12:01;;;;;;;2.90;1.30;;;;;;;1.39;79.68;99721.29;126708;1317;107808;-82
2021/12/20 05:15:06;;;;;;;;;;;;;;;1.40;79.74;99724.73;126676;1312;107730;-82
2021/12/20 05:18:12;;;;;;;2.50;1.30;;;;;;;1.44;79.84;99729.02;126919;1312;108942;-82
2021/12/20 05:21:17;;;;;;;4.10;1.30;;;;;;;1.47;79.87;99724.24;126735;1315;107782;-81
2021/12/20 05:24:23;;;;;;;3.30;1.30;;;;;;;1.48;79.62;99728.41;126600;1317;108931;-81
2021/12/20 05:27:28;;;;;;;2.30;1.20;;;;;;;1.45;80.26;99732.97;126514;1312;108791;-81
2021/12/20 05:30:34;;;;;;;3.50;1.70;;;;;;;1.40;80.79;99733.83;126590;1317;108930;-80
2021/12/20 05:33:40;;;;;;;4.60;1.80;;;;;;;1.40;80.75;99730.70;126418;1315;108817;-80
2021/12/20 05:36:46;;;;;;;4.50;1.60;;;;;;;1.40;80.74;99732.60;126464;1313;107888;-80
2021/12/20 05:39:51;;;;;;;1.90;1.40;;;;;;;1.33;81.08;99738.52;126774;1312;108709;-79
2021/12/20 05:42:57;;;;;;;3.20;1.40;;;;;;;1.30;81.75;99743.29;126867;1311;105804;-79
2021/12/20 05:46:02;;;;;;;5.60;1.90;;;;;;;1.29;81.79;99738.11;126863;1312;108789;-81
2021/12/20 05:49:07;;;;;;;4.90;2.00;;;;;;;1.28;81.95;99749.08;126535;1318;105521;-84
2021/12/20 05:52:13;;;;;;;4.40;2.50;;;;;;;1.26;81.85;99748.13;126987;1317;108757;-82
2021/12/20 05:55:19;;;;;;;4.60;2.30;;;;;;;1.29;81.74;99753.87;126594;1317;107913;-83
2021/12/20 05:58:24;;;;;;;7.40;2.70;;;;;;;1.32;81.33;99755.08;126780;1317;107791;-81
2021/12/20 06:01:30;;;;;;;5.00;1.90;;;;;;;1.36;81.33;99750.73;126723;1317;108924;-83
2021/12/20 06:04:36;;;;;;;4.20;2.50;;;;;;;1.37;81.15;99749.27;126648;1318;108783;-86
2021/12/20 06:07:42;;;;;;;4.60;2.50;;;;;;;1.43;81.02;99753.61;126656;1317;108935;-81
2021/12/20 06:10:48;;;;;;;8.30;3.20;;;;;;;1.45;80.90;99759.46;126666;1317;107302;-81
2021/12/20 06:13:54;;;;;;;4.70;2.50;;;;;;;1.48;80.85;99759.92;126746;1312;107798;-83
2021/12/20 06:17:00;;;;;;;7.20;2.90;;;;;;;1.48;80.76;99760.09;126727;1315;108698;-81
2021/12/20 06:20:08;;;;;;;8.60;3.80;;;;;;;1.46;80.85;99767.80;126905;1315;108950;-86
2021/12/20 06:23:13;;;;;;;6.30;2.90;;;;;;;1.35;80.78;99757.33;127169;1315;108317;-83
2021/12/20 06:26:23;;;;;;;8.20;3.10;;;;;;;1.46;80.75;99783.36;126809;1312;106749;-85
2021/12/20 06:29:28;;;;;;;4.80;3.00;;;;;;;1.45;80.74;99789.71;126665;1314;107537;-79
2021/12/20 06:32:34;;;;;;;6.80;2.70;;;;;;;1.43;80.93;99792.16;126727;1315;109016;-75
2021/12/20 06:35:39;;;;;;;5.40;2.30;;;;;;;1.41;81.33;99793.72;126676;1317;108844;-75
2021/12/20 06:38:46;;;;;;;3.80;2.20;;;;;;;1.39;81.56;99801.73;126691;1315;108734;-76
2021/12/20 06:41:52;;;;;;;7.80;3.60;;;;;;;1.38;81.97;99804.58;126455;1315;108920;-74
2021/12/20 06:44:57;;;;;;;4.10;2.90;;;;;;;1.36;82.15;99807.52;126599;1314;107808;-76
2021/12/20 06:48:03;;;;;;;4.60;2.10;;;;;;;1.33;82.41;99822.64;126674;1315;108918;-79
2021/12/20 06:51:09;;;;;;;5.50;2.70;;;;;;;1.29;82.70;99820.09;126713;1312;108994;-79
2021/12/20 06:54:18;;;;;;;4.20;2.80;;;;;;;1.31;82.56;99822.10;126750;1315;106039;-76
2021/12/20 06:57:24;;;;;;;5.60;2.80;;;;;;;1.31;82.51;99825.39;126801;1314;107852;-79
2021/12/20 07:00:29;;;;;;;5.40;2.70;;;;;;;1.31;82.50;99835.06;126685;1314;108788;-79
2021/12/20 07:03:35;;;;;;;4.30;2.60;;;;;;;1.36;82.25;99835.79;126515;1314;107910;-80
2021/12/20 07:06:40;;;;;;;4.40;2.60;;;;;;;1.39;82.48;99843.61;126485;1318;108777;-79
2021/12/20 07:09:45;;;;;;;10.70;4.80;;;;;;;1.39;82.35;99845.04;126574;1317;107746;-79
2021/12/20 07:12:52;;;;;;;7.90;3.60;;;;;;;1.39;82.59;99848.86;126646;1315;108973;-79
2021/12/20 07:15:57;;;;;;;27.90;8.30;;;;;;;1.37;82.63;99848.30;126669;1315;108774;-78
2021/12/20 07:19:05;;;;;;;14.10;5.40;;;;;;;1.33;82.69;99842.95;126642;1315;107476;-79
2021/12/20 07:22:10;;;;;;;10.10;4.40;;;;;;;1.33;82.89;99854.23;126394;1314;108882;-79
2021/12/20 07:25:16;;;;;;;21.60;7.60;;;;;;;1.27;83.18;99854.76;126457;1315;108871;-80
2021/12/20 07:28:21;;;;;;;9.80;4.10;;;;;;;1.25;83.07;99857.00;126475;1315;108948;-79
2021/12/20 07:31:26;;;;;;;6.10;3.90;;;;;;;1.27;83.31;99867.41;126313;1314;109002;-80
2021/12/20 07:34:32;;;;;;;7.60;3.10;;;;;;;1.28;83.14;99864.71;126402;1315;106728;-79
2021/12/20 07:37:37;;;;;;;6.60;4.00;;;;;;;1.33;83.13;99869.62;126380;1314;107752;-79
2021/12/20 07:40:46;;;;;;;7.40;4.70;;;;;;;1.31;83.26;99870.79;126558;1315;106736;-80
2021/12/20 07:43:52;;;;;;;6.50;3.70;;;;;;;1.30;83.17;99871.73;126594;1315;108740;-79
2021/12/20 07:46:57;;;;;;;7.50;4.90;;;;;;;1.33;83.32;99870.67;126542;1315;109086;-79
2021/12/20 07:50:04;;;;;;;5.10;3.30;;;;;;;1.35;83.18;99872.98;126296;1315;109001;-79
2021/12/20 07:53:09;;;;;;;5.50;3.70;;;;;;;1.34;83.21;99870.77;126510;1310;108733;-79
2021/12/20 07:56:16;;;;;;;5.30;3.50;;;;;;;1.36;83.70;99876.44;126382;1314;108774;-80
2021/12/20 07:59:22;;;;;;;5.80;3.60;;;;;;;1.38;83.39;99882.74;126519;1315;106993;-79
2021/12/20 08:02:27;;;;;;;5.90;3.40;;;;;;;1.40;83.38;99881.77;126470;1315;109191;-79
2021/12/20 08:05:33;;;;;;;5.40;3.40;;;;;;;1.43;83.37;99879.80;126446;1315;108868;-79
2021/12/20 08:08:40;;;;;;;7.00;3.30;;;;;;;1.45;83.34;99890.35;126351;1315;108850;-79
2021/12/20 08:11:46;;;;;;;6.30;3.80;;;;;;;1.44;83.53;99891.66;126350;1311;108838;-79
2021/12/20 08:14:52;;;;;;;5.70;4.20;;;;;;;1.44;83.75;99901.29;126317;1315;108845;-78
2021/12/20 08:17:58;;;;;;;7.40;4.30;;;;;;;1.41;83.79;99897.83;126327;1313;109039;-80
2021/12/20 08:21:03;;;;;;;6.70;4.20;;;;;;;1.40;83.67;99894.36;126364;1315;106771;-79
2021/12/20 08:24:09;;;;;;;6.60;4.50;;;;;;;1.44;83.70;99904.44;126286;1315;108718;-78
2021/12/20 08:27:14;;;;;;;5.90;3.50;;;;;;;1.43;83.90;99905.02;126312;1311;109084;-79
2021/12/20 08:30:22;;;;;;;8.00;4.20;;;;;;;1.50;83.69;99905.41;126298;1315;108989;-78
2021/12/20 08:33:27;;;;;;;6.50;3.90;;;;;;;1.57;83.48;99908.83;126311;1315;108864;-79
2021/12/20 08:36:33;;;;;;;7.70;4.40;;;;;;;1.56;83.30;99909.39;126303;1314;109034;-81
2021/12/20 08:39:38;;;;;;;7.90;4.70;;;;;;;1.60;83.51;99906.74;126379;1310;108740;-79
2021/12/20 08:42:45;;;;;;;12.10;6.30;;;;;;;1.58;83.42;99909.80;126294;1314;108784;-80
2021/12/20 08:45:50;;;;;;;7.70;4.70;;;;;;;1.58;83.51;99914.40;126380;1311;108849;-80
2021/12/20 08:48:56;;;;;;;13.10;7.40;;;;;;;1.64;83.49;99918.69;126444;1315;108794;-79
2021/12/20 08:52:10;;;;;;;9.40;6.30;;;;;;;1.71;83.33;99917.33;126451;1310;109014;-78
2021/12/20 08:55:16;;;;;;;7.30;5.00;;;;;;;1.72;82.95;99924.64;126500;1314;108913;-79
2021/12/20 08:58:24;;;;;;;9.70;5.50;;;;;;;1.67;82.97;99927.80;126547;1313;107937;-78
2021/12/20 09:01:29;;;;;;;7.40;3.80;;;;;;;1.68;83.01;99933.15;126346;1310;107949;-79
2021/12/20 09:04:36;;;;;;;19.70;7.60;;;;;;;1.67;82.73;99928.00;126380;1315;107870;-80
2021/12/20 09:07:42;;;;;;;21.40;7.20;;;;;;;1.70;82.71;99938.64;126424;1310;108977;-77
2021/12/20 09:10:48;;;;;;;27.90;9.20;;;;;;;1.76;82.17;99943.14;126360;1315;107816;-78
2021/12/20 09:13:55;;;;;;;13.70;4.90;;;;;;;1.72;81.65;99942.90;126414;1311;107932;-79
2021/12/20 09:17:00;;;;;;;19.70;8.00;;;;;;;1.72;81.82;99940.06;126472;1312;107859;-80
2021/12/20 09:20:07;;;;;;;21.50;8.60;;;;;;;1.74;81.82;99948.54;126669;1315;107919;-80
2021/12/20 09:23:14;;;;;;;8.40;4.50;;;;;;;1.77;81.73;99938.17;126639;1310;109052;-83
2021/12/20 09:26:24;;;;;;;10.70;4.40;;;;;;;1.84;81.51;99943.27;126546;1314;107776;-85
2021/12/20 09:29:31;;;;;;;5.20;2.70;;;;;;;1.91;81.43;99935.98;126444;1312;107871;-82
2021/12/20 09:32:36;;;;;;;9.00;4.70;;;;;;;1.93;80.94;99943.73;126475;1314;107805;-82
2021/12/20 09:35:44;;;;;;;11.90;5.70;;;;;;;1.92;80.53;99939.91;126580;1313;107901;-86
2021/12/20 09:38:54;;;;;;;6.70;3.80;;;;;;;1.93;80.42;99941.43;126543;1311;108705;-84
2021/12/20 09:42:03;;;;;;;5.20;2.70;;;;;;;1.96;80.37;99940.38;126582;1311;107934;-81
2021/12/20 09:45:09;;;;;;;11.00;5.80;;;;;;;1.94;79.61;99936.83;126477;1311;108815;-77
2021/12/20 09:48:15;;;;;;;9.70;5.70;;;;;;;1.94;79.92;99937.70;126430;1312;107803;-77
2021/12/20 09:51:21;;;;;;;7.00;3.70;;;;;;;1.96;80.14;99938.61;126396;1315;108784;-75
2021/12/20 09:54:31;;;;;;;6.30;2.60;;;;;;;1.95;79.54;99937.60;126410;1311;108833;-77
2021/12/20 09:57:38;;;;;;;7.10;3.10;;;;;;;1.92;79.42;99947.64;126358;1310;108099;-75
2021/12/20 10:00:44;;;;;;;6.40;4.00;;;;;;;1.87;79.55;99938.50;126716;1312;107693;-79
2021/12/20 10:03:50;;;;;;;6.60;3.30;;;;;;;1.85;79.64;99945.98;126393;1315;108753;-78
2021/12/20 10:06:59;;;;;;;5.20;2.60;;;;;;;1.87;80.06;99946.46;126492;1315;108978;-79
2021/12/20 10:10:06;;;;;;;7.00;3.60;;;;;;;1.83;79.76;99947.39;126532;1312;108788;-83
2021/12/20 10:13:22;;;;;;;4.90;2.60;;;;;;;1.77;79.75;99949.55;126475;1310;107712;-84
2021/12/20 10:16:27;;;;;;;9.20;3.80;;;;;;;1.70;80.06;99959.84;126705;1312;108793;-83
2021/12/20 10:19:35;;;;;;;9.80;4.80;;;;;;;1.67;80.32;99964.80;126523;1314;112193;-82
2021/12/20 10:22:40;;;;;;;7.60;3.80;;;;;;;1.66;81.38;99963.30;126574;1312;106839;-82
2021/12/20 10:25:47;;;;;;;11.60;4.40;;;;;;;1.61;81.69;99961.35;126544;1310;108925;-83
2021/12/20 10:28:55;;;;;;;9.00;3.80;;;;;;;1.61;81.69;99960.47;126610;1311;107832;-81
2021/12/20 10:32:01;;;;;;;10.50;5.20;;;;;;;1.63;81.02;99964.73;126857;1312;107887;-81
2021/12/20 10:35:30;;;;;;;9.40;4.60;;;;;;;1.73;80.92;99966.87;126718;1311;109095;-82
2021/12/20 10:38:38;;;;;;;7.60;4.10;;;;;;;1.81;80.39;99963.70;126730;1311;108901;-84
2021/12/20 10:41:50;;;;;;;10.10;4.60;;;;;;;1.85;79.88;99971.31;126537;1315;107792;-84
2021/12/20 10:45:13;;;;;;;11.20;5.10;;;;;;;1.87;79.93;99972.06;126515;1310;108812;-79
2021/12/20 10:48:19;;;;;;;6.80;3.60;;;;;;;1.85;81.17;99983.02;126719;1311;108718;-83
2021/12/20 10:51:28;;;;;;;7.50;3.90;;;;;;;1.71;82.39;99987.52;126636;1312;108977;-83
2021/12/20 10:54:42;;;;;;;7.90;4.50;;;;;;;1.58;82.77;99992.90;126842;1310;105897;-80
2021/12/20 10:57:48;;;;;;;9.80;4.70;;;;;;;1.54;83.05;99992.67;126630;1315;107503;-84
2021/12/20 11:01:22;;;;;;;9.30;4.20;;;;;;;1.46;83.63;99997.21;126472;1312;108792;-81
2021/12/20 11:04:30;;;;;;;9.00;4.20;;;;;;;1.45;83.90;99992.04;126546;1310;106793;-81
2021/12/20 11:11:12;;;;;;;10.00;5.10;;;;;;;1.53;83.82;99988.15;126570;1311;107938;-78
2021/12/20 11:14:18;;;;;;;8.30;4.80;;;;;;;1.58;83.65;99986.63;126565;1310;108825;-83
2021/12/20 11:17:25;;;;;;;7.80;3.90;;;;;;;1.65;83.69;99982.99;126577;1310;107825;-83
2021/12/20 11:20:30;;;;;;;7.60;4.70;;;;;;;1.72;83.85;99989.88;126580;1315;109058;-84
2021/12/20 11:23:36;;;;;;;7.70;4.70;;;;;;;1.76;83.42;99988.39;126510;1311;109104;-82
2021/12/20 11:26:42;;;;;;;6.00;3.80;;;;;;;1.82;82.88;99991.64;126701;1315;108815;-83
2021/12/20 11:29:49;;;;;;;9.60;5.00;;;;;;;1.79;82.38;99991.15;126538;1314;105989;-81
2021/12/20 11:32:56;;;;;;;5.90;3.30;;;;;;;1.81;82.44;99987.20;126416;1312;109091;-81
2021/12/20 11:36:01;;;;;;;7.90;4.40;;;;;;;1.83;82.42;99991.94;126548;1312;108773;-81
2021/12/20 11:39:09;;;;;;;7.60;4.70;;;;;;;1.78;82.23;100000.38;126360;1314;108789;-81
2021/12/20 11:42:15;;;;;;;7.30;3.80;;;;;;;1.81;82.38;100001.23;126387;1312;106601;-82
2021/12/20 11:45:21;;;;;;;5.40;3.30;;;;;;;1.83;82.00;100004.42;126490;1312;109839;-80
2021/12/20 11:48:29;;;;;;;6.80;3.20;;;;;;;1.77;81.30;100007.61;126511;1311;108712;-79
2021/12/20 11:52:02;;;;;;;5.50;3.20;;;;;;;1.67;81.11;100022.11;126556;1312;109014;-81
2021/12/20 11:55:23;;;;;;;5.40;3.70;;;;;;;1.59;80.89;100020.20;126508;1312;107382;-81
2021/12/20 11:58:30;;;;;;;6.70;3.90;;;;;;;1.52;81.27;100019.21;126506;1312;108731;-80
2021/12/20 12:01:36;;;;;;;6.30;3.50;;;;;;;1.47;81.66;100023.42;126562;1311;108976;-81
2021/12/20 12:05:07;;;;;;;6.50;3.50;;;;;;;1.37;82.55;100022.52;126578;1311;108538;-82
2021/12/20 12:08:30;;;;;;;11.50;5.80;;;;;;;1.32;82.35;100024.39;126380;1315;107988;-79
2021/12/20 12:11:37;;;;;;;6.60;3.10;;;;;;;1.29;82.14;100023.71;126467;1310;108948;-81
2021/12/20 12:15:07;;;;;;;5.40;3.20;;;;;;;1.24;81.88;100028.79;126489;1314;108909;-77
2021/12/20 12:18:13;;;;;;;5.10;3.20;;;;;;;1.22;81.75;100026.32;126445;1311;108883;-82
2021/12/20 12:21:41;;;;;;;5.30;3.20;;;;;;;1.17;82.85;100075.48;126560;1311;107732;-82
2021/12/20 12:24:50;;;;;;;3.30;1.80;;;;;;;0.86;83.12;100084.42;126339;1311;108915;-80
2021/12/20 12:28:00;;;;;;;3.70;1.90;;;;;;;0.51;82.38;100091.96;126471;1315;106684;-80
2021/12/20 12:31:08;;;;;;;4.90;2.60;;;;;;;0.29;83.48;100089.81;126488;1315;106239;-83
2021/12/20 12:34:14;;;;;;;6.10;3.90;;;;;;;0.22;83.40;100094.05;126460;1312;108934;-80
2021/12/20 12:37:25;;;;;;;5.60;2.40;;;;;;;0.21;83.14;100103.77;126470;1312;107732;-81
2021/12/20 12:40:31;;;;;;;5.20;2.80;;;;;;;0.13;82.92;100111.73;126503;1311;108976;-80
2021/12/20 12:43:54;;;;;;;5.70;2.40;;;;;;;0.12;83.55;100117.56;126414;1311;108737;-81
2021/12/20 12:47:08;;;;;;;8.90;4.20;;;;;;;0.10;83.47;100124.73;126586;1311;108833;-80
2021/12/20 12:50:27;;;;;;;9.50;4.70;;;;;;;0.07;83.63;100128.90;126496;1315;107661;-80
2021/12/20 12:53:44;;;;;;;10.50;5.10;;;;;;;0.03;83.55;100134.02;126540;1311;105953;-80
2021/12/20 12:56:50;;;;;;;5.50;2.60;;;;;;;0.06;83.52;100136.98;126464;1314;108828;-86
2021/12/20 13:00:15;;;;;;;14.00;7.40;;;;;;;0.05;83.63;100144.23;126545;1315;109064;-81
2021/12/20 13:03:21;;;;;;;6.70;3.30;;;;;;;-0.01;83.53;100143.13;126568;1311;107612;-81
2021/12/20 13:06:27;;;;;;;8.30;4.40;;;;;;;-0.12;84.04;100149.54;126560;1311;108780;-78
2021/12/20 13:09:42;;;;;;;7.70;3.90;;;;;;;-0.18;84.26;100153.25;126493;1312;107578;-82
2021/12/20 13:12:54;;;;;;;6.00;3.10;;;;;;;-0.20;84.41;100151.41;126559;1312;108922;-80
2021/12/20 13:16:04;;;;;;;7.40;3.70;;;;;;;-0.20;84.58;100159.95;126549;1311;108842;-80
2021/12/20 13:19:10;;;;;;;5.70;3.30;;;;;;;-0.23;84.31;100166.11;126516;1312;108920;-80
2021/12/20 13:22:15;;;;;;;8.30;5.70;;;;;;;-0.28;83.67;100168.78;126522;1312;108728;-79
2021/12/20 13:25:36;;;;;;;6.80;3.70;;;;;;;-0.29;83.48;100179.39;126521;1312;109078;-80
2021/12/20 13:28:44;;;;;;;5.60;3.00;;;;;;;-0.33;83.66;100189.23;126547;1312;108878;-82
2021/12/20 13:31:49;;;;;;;7.80;3.30;;;;;;;-0.39;83.73;100188.84;126422;1311;108816;-77
2021/12/20 13:34:56;;;;;;;7.80;4.20;;;;;;;-0.42;84.14;100191.92;126582;1315;109027;-82
2021/12/20 13:38:25;;;;;;;6.20;3.10;;;;;;;-0.44;83.88;100188.78;126528;1314;108921;-77
2021/12/20 13:41:33;;;;;;;7.70;4.00;;;;;;;-0.44;84.16;100189.77;126700;1315;109051;-80
2021/12/20 13:44:39;;;;;;;7.40;3.90;;;;;;;-0.46;83.97;100192.38;126798;1312;107537;-80
2021/12/20 13:47:44;;;;;;;6.60;3.70;;;;;;;-0.51;84.03;100188.27;126755;1314;108875;-84
2021/12/20 13:50:55;;;;;;;8.50;4.00;;;;;;;-0.50;83.81;100188.73;126506;1311;108947;-79
2021/12/20 13:54:14;;;;;;;9.10;4.60;;;;;;;-0.45;83.66;100191.93;126532;1311;108952;-78
2021/12/20 13:57:23;;;;;;;16.80;10.40;;;;;;;-0.43;84.03;100201.08;126415;1310;107956;-79
2021/12/20 14:00:29;;;;;;;14.30;8.70;;;;;;;-0.42;83.75;100209.27;126359;1310;108694;-79
2021/12/20 14:03:40;;;;;;;12.90;7.00;;;;;;;-0.42;83.76;100210.45;126476;1312;106767;-78
2021/12/20 14:06:45;;;;;;;11.30;6.10;;;;;;;-0.42;83.75;100214.65;126452;1315;108953;-77
2021/12/20 14:10:04;;;;;;;10.90;6.10;;;;;;;-0.42;83.59;100219.58;126578;1312;108862;-77
2021/12/20 14:13:15;;;;;;;17.80;8.10;;;;;;;-0.43;83.39;100221.89;126523;1312;108985;-77
2021/12/20 14:16:21;;;;;;;12.10;6.30;;;;;;;-0.42;83.20;100226.37;126363;1312;108905;-78
2021/12/20 14:19:59;;;;;;;11.60;6.40;;;;;;;-0.43;83.14;100233.09;126446;1311;108820;-77
2021/12/20 14:23:06;;;;;;;10.70;5.80;;;;;;;-0.47;83.03;100244.81;126512;1309;109882;-77
2021/12/20 14:26:15;;;;;;;11.50;5.80;;;;;;;-0.51;82.76;100244.52;126710;1310;109758;-77
2021/12/20 14:29:21;;;;;;;10.40;5.20;;;;;;;-0.50;82.24;100250.91;126385;1311;108818;-77
2021/12/20 14:32:41;;;;;;;9.10;4.90;;;;;;;-0.49;81.67;100255.59;126268;1315;108991;-77
2021/12/20 14:35:52;;;;;;;8.70;4.40;;;;;;;-0.48;80.96;100260.81;126273;1311;107304;-76
2021/12/20 14:38:59;;;;;;;11.60;6.00;;;;;;;-0.49;80.20;100267.83;126376;1310;108768;-77
2021/12/20 14:42:06;;;;;;;9.00;4.20;;;;;;;-0.51;78.18;100275.27;126328;1311;107427;-77
2021/12/20 14:45:23;;;;;;;8.80;4.40;;;;;;;-0.58;76.87;100280.70;126451;1311;106733;-77
2021/12/20 14:48:34;;;;;;;9.30;4.00;;;;;;;-0.62;76.21;100285.48;126295;1314;108848;-77